createdAt,value
2023-05-06T00:02:06.633Z,12.39
2023-05-06T00:04:34.456Z,12.39
2023-05-06T00:07:02.905Z,12.39
2023-05-06T00:09:30.887Z,12.38
2023-05-06T00:11:58.534Z,12.36
2023-05-06T00:14:26.097Z,12.36
2023-05-06T00:16:53.718Z,12.34
2023-05-06T00:19:21.661Z,12.32
2023-05-06T00:21:49.264Z,12.29
2023-05-06T00:24:16.904Z,12.26
2023-05-06T00:26:44.514Z,12.22
2023-05-06T00:29:12.157Z,12.18
2023-05-06T00:31:40.366Z,12.13
2023-05-06T00:34:08.044Z,12.07
2023-05-06T00:36:36.595Z,12.02
2023-05-06T00:39:04.197Z,12.00
2023-05-06T00:41:31.821Z,11.96
2023-05-06T00:43:59.742Z,11.93
2023-05-06T00:46:27.446Z,11.90
2023-05-06T00:48:55.185Z,11.86
2023-05-06T00:51:23.182Z,11.81
2023-05-06T00:53:50.752Z,11.76
2023-05-06T00:56:20.880Z,11.71
2023-05-06T00:58:48.648Z,11.64
2023-05-06T01:01:17.600Z,11.58
2023-05-06T01:03:45.410Z,11.53
2023-05-06T01:06:13.158Z,11.47
2023-05-06T01:08:41.254Z,11.41
2023-05-06T01:11:09.054Z,11.35
2023-05-06T01:13:37.069Z,11.30
2023-05-06T01:16:04.981Z,11.25
2023-05-06T01:18:32.668Z,11.19
2023-05-06T01:21:00.617Z,11.13
2023-05-06T01:23:28.194Z,11.08
2023-05-06T01:25:55.821Z,11.03
2023-05-06T01:28:23.418Z,10.99
2023-05-06T01:30:51.041Z,10.95
2023-05-06T01:33:19.027Z,10.92
2023-05-06T01:35:47.065Z,10.92
2023-05-06T01:38:14.625Z,10.94
2023-05-06T01:40:42.220Z,10.97
2023-05-06T01:43:09.818Z,10.98
2023-05-06T01:45:37.955Z,10.99
2023-05-06T01:48:05.694Z,11.01
2023-05-06T01:50:33.354Z,11.02
2023-05-06T01:53:01.047Z,11.01
2023-05-06T01:55:28.651Z,11.00
2023-05-06T01:57:57.996Z,10.99
2023-05-06T02:00:26.453Z,10.98
2023-05-06T02:02:54.308Z,10.97
2023-05-06T02:05:21.990Z,10.94
2023-05-06T02:07:49.591Z,10.93
2023-05-06T02:10:17.557Z,10.91
2023-05-06T02:12:45.144Z,10.86
2023-05-06T02:15:12.734Z,10.80
2023-05-06T02:17:40.442Z,10.74
2023-05-06T02:20:09.714Z,10.67
2023-05-06T02:22:37.838Z,10.63
2023-05-06T02:25:05.438Z,10.59
2023-05-06T02:27:33.020Z,10.56
2023-05-06T02:30:00.612Z,10.52
2023-05-06T02:32:28.254Z,10.50
2023-05-06T02:34:56.173Z,10.49
2023-05-06T02:37:23.776Z,10.46
2023-05-06T02:39:51.395Z,10.46
2023-05-06T02:42:19.515Z,10.46
2023-05-06T02:44:47.090Z,10.45
2023-05-06T02:47:15.238Z,10.44
2023-05-06T02:49:42.835Z,10.41
2023-05-06T02:52:10.401Z,10.37
2023-05-06T02:54:38.028Z,10.32
2023-05-06T02:57:05.610Z,10.24
2023-05-06T02:59:33.565Z,10.19
2023-05-06T03:02:01.332Z,10.21
2023-05-06T03:04:28.980Z,10.18
2023-05-06T03:06:56.549Z,10.16
2023-05-06T03:09:24.174Z,10.15
2023-05-06T03:11:52.341Z,10.13
2023-05-06T03:14:19.990Z,10.10
2023-05-06T03:16:47.653Z,10.06
2023-05-06T03:19:15.284Z,10.02
2023-05-06T03:21:42.950Z,9.97
2023-05-06T03:24:10.986Z,9.92
2023-05-06T03:26:38.896Z,9.87
2023-05-06T03:29:06.541Z,9.82
2023-05-06T03:31:34.211Z,9.78
2023-05-06T03:34:01.835Z,9.75
2023-05-06T03:36:30.009Z,9.69
2023-05-06T03:38:57.642Z,9.62
2023-05-06T03:41:25.243Z,9.56
2023-05-06T03:43:52.859Z,9.52
2023-05-06T03:46:20.503Z,9.48
2023-05-06T03:48:49.616Z,9.44
2023-05-06T03:51:17.184Z,9.38
2023-05-06T03:53:44.794Z,9.34
2023-05-06T03:56:12.335Z,9.29
2023-05-06T03:58:39.913Z,9.27
2023-05-06T04:01:07.871Z,9.23
2023-05-06T04:03:35.549Z,9.19
2023-05-06T04:06:03.236Z,9.14
2023-05-06T04:08:30.856Z,9.12
2023-05-06T04:10:58.899Z,9.09
2023-05-06T04:13:27.061Z,9.05
2023-05-06T04:15:54.719Z,9.04
2023-05-06T04:18:22.425Z,9.02
2023-05-06T04:20:50.387Z,8.99
2023-05-06T04:23:18.010Z,9.00
2023-05-06T04:25:49.112Z,9.02
2023-05-06T04:28:17.025Z,9.04
2023-05-06T04:30:44.694Z,9.07
2023-05-06T04:33:12.290Z,9.09
2023-05-06T04:35:39.940Z,9.06
2023-05-06T04:38:08.128Z,9.08
2023-05-06T04:40:36.683Z,9.08
2023-05-06T04:43:04.802Z,9.11
2023-05-06T04:45:32.704Z,9.15
2023-05-06T04:48:00.326Z,9.22
2023-05-06T04:50:28.512Z,9.28
2023-05-06T04:52:56.174Z,9.32
2023-05-06T04:55:24.135Z,9.35
2023-05-06T04:57:51.717Z,9.40
2023-05-06T05:00:19.748Z,9.43
2023-05-06T05:02:47.999Z,9.47
2023-05-06T05:05:15.688Z,9.49
2023-05-06T05:07:43.314Z,9.56
2023-05-06T05:10:10.880Z,9.63
2023-05-06T05:12:38.493Z,9.71
2023-05-06T05:15:06.199Z,9.82
2023-05-06T05:17:34.352Z,9.91
2023-05-06T05:20:02.127Z,10.00
2023-05-06T05:22:29.779Z,10.11
2023-05-06T05:24:57.373Z,10.22
2023-05-06T05:27:25.378Z,10.33
2023-05-06T05:29:53.040Z,10.46
2023-05-06T05:32:21.975Z,10.68
2023-05-06T05:34:49.642Z,10.84
2023-05-06T05:37:17.258Z,11.01
2023-05-06T05:39:46.697Z,11.17
2023-05-06T05:42:14.293Z,11.30
2023-05-06T05:44:41.996Z,11.42
2023-05-06T05:47:09.600Z,11.54
2023-05-06T05:49:37.250Z,11.66
2023-05-06T05:52:05.110Z,11.77
2023-05-06T05:54:32.777Z,11.89
2023-05-06T05:57:00.355Z,11.99
2023-05-06T05:59:28.096Z,12.09
2023-05-06T06:01:55.680Z,12.17
2023-05-06T06:04:23.672Z,12.26
2023-05-06T06:06:51.365Z,12.32
2023-05-06T06:09:19.008Z,12.44
2023-05-06T06:11:46.594Z,12.58
2023-05-06T06:14:14.255Z,12.66
2023-05-06T06:16:42.532Z,12.75
2023-05-06T06:19:10.237Z,12.82
2023-05-06T06:21:38.248Z,12.91
2023-05-06T06:24:05.851Z,13.02
2023-05-06T06:26:33.484Z,13.12
2023-05-06T06:29:01.629Z,13.23
2023-05-06T06:31:29.474Z,13.32
2023-05-06T06:33:57.160Z,13.44
2023-05-06T06:36:24.834Z,13.52
2023-05-06T06:38:52.464Z,13.63
2023-05-06T06:41:20.712Z,13.72
2023-05-06T06:43:48.922Z,13.83
2023-05-06T06:46:17.137Z,13.91
2023-05-06T06:48:44.794Z,13.98
2023-05-06T06:51:12.510Z,14.08
2023-05-06T06:53:40.721Z,14.18
2023-05-06T06:56:08.389Z,14.28
2023-05-06T06:58:36.116Z,14.40
2023-05-06T07:01:03.748Z,14.53
2023-05-06T07:03:32.772Z,14.65
2023-05-06T07:06:02.679Z,14.78
2023-05-06T07:08:30.361Z,14.91
2023-05-06T07:10:58.062Z,15.04
2023-05-06T07:13:25.715Z,15.15
2023-05-06T07:15:53.457Z,15.25
2023-05-06T07:18:21.307Z,15.40
2023-05-06T07:20:49.061Z,15.52
2023-05-06T07:23:16.677Z,15.66
2023-05-06T07:25:44.361Z,15.78
2023-05-06T07:28:12.730Z,15.86
2023-05-06T07:30:40.977Z,15.97
2023-05-06T07:33:08.621Z,16.07
2023-05-06T07:35:36.319Z,16.18
2023-05-06T07:38:04.024Z,16.31
2023-05-06T07:40:31.800Z,16.39
2023-05-06T07:43:00.147Z,16.51
2023-05-06T07:45:27.783Z,16.60
2023-05-06T07:47:55.906Z,16.70
2023-05-06T07:50:24.473Z,16.81
2023-05-06T07:52:52.166Z,16.93
2023-05-06T07:55:20.480Z,17.06
2023-05-06T07:57:48.279Z,17.10
2023-05-06T08:00:15.979Z,17.15
2023-05-06T08:02:44.937Z,17.25
2023-05-06T08:05:13.083Z,17.36
2023-05-06T08:07:41.491Z,17.48
2023-05-06T08:10:09.335Z,17.57
2023-05-06T08:12:38.289Z,17.69
2023-05-06T08:15:06.074Z,17.79
2023-05-06T08:17:33.805Z,17.90
2023-05-06T08:20:02.206Z,18.03
2023-05-06T08:22:29.978Z,18.13
2023-05-06T08:24:57.713Z,18.24
2023-05-06T08:27:25.842Z,18.31
2023-05-06T08:29:53.557Z,18.41
2023-05-06T08:32:21.919Z,18.53
2023-05-06T08:34:49.699Z,18.59
2023-05-06T08:37:17.441Z,18.63
2023-05-06T08:39:45.697Z,18.70
2023-05-06T08:42:13.545Z,18.81
2023-05-06T08:44:41.343Z,18.93
2023-05-06T08:47:09.097Z,19.05
2023-05-06T08:49:36.876Z,19.16
2023-05-06T08:52:04.731Z,19.29
2023-05-06T08:54:32.538Z,19.37
2023-05-06T08:57:03.376Z,19.34
2023-05-06T08:59:32.975Z,19.40
2023-05-06T09:02:00.729Z,19.52
2023-05-06T09:04:28.538Z,19.67
2023-05-06T09:06:57.460Z,19.80
2023-05-06T09:09:25.829Z,19.95
2023-05-06T09:11:55.389Z,20.03
2023-05-06T09:14:23.100Z,20.00
2023-05-06T09:16:50.932Z,20.11
2023-05-06T09:19:19.242Z,20.29
2023-05-06T09:21:47.616Z,20.50
2023-05-06T09:24:15.430Z,20.48
2023-05-06T09:26:43.307Z,20.36
2023-05-06T09:29:11.221Z,20.26
2023-05-06T09:31:39.157Z,20.30
2023-05-06T09:34:07.826Z,20.32
2023-05-06T09:36:35.517Z,20.41
2023-05-06T09:39:03.329Z,20.75
2023-05-06T09:41:31.473Z,21.23
2023-05-06T09:43:59.387Z,21.68
2023-05-06T09:46:27.636Z,21.88
2023-05-06T09:48:55.574Z,21.64
2023-05-06T09:51:23.433Z,21.27
2023-05-06T09:53:51.541Z,20.92
2023-05-06T09:56:19.352Z,20.70
2023-05-06T09:58:47.684Z,20.56
2023-05-06T10:01:25.238Z,20.46
2023-05-06T10:03:57.505Z,20.62
2023-05-06T10:06:25.442Z,20.60
2023-05-06T10:08:53.952Z,20.44
2023-05-06T10:11:21.896Z,20.24
2023-05-06T10:13:49.828Z,20.05
2023-05-06T10:16:17.846Z,19.90
2023-05-06T10:18:45.969Z,19.73
2023-05-06T10:21:14.350Z,19.59
2023-05-06T10:23:42.442Z,19.52
2023-05-06T10:26:10.364Z,19.51
2023-05-06T10:28:38.106Z,19.52
2023-05-06T10:31:05.837Z,19.51
2023-05-06T10:33:34.343Z,19.52
2023-05-06T10:36:02.054Z,19.60
2023-05-06T10:38:29.831Z,20.23
2023-05-06T10:40:57.694Z,20.65
2023-05-06T10:43:25.677Z,21.18
2023-05-06T10:45:55.427Z,21.49
2023-05-06T10:48:23.468Z,21.36
2023-05-06T10:50:51.352Z,21.18
2023-05-06T10:53:19.068Z,21.53
2023-05-06T10:55:46.927Z,22.16
2023-05-06T10:58:15.517Z,23.22
2023-05-06T11:00:43.286Z,24.30
2023-05-06T11:03:11.321Z,25.30
2023-05-06T11:05:39.194Z,26.13
2023-05-06T11:08:07.261Z,26.78
2023-05-06T11:10:35.897Z,27.37
2023-05-06T11:13:03.742Z,27.68
2023-05-06T11:15:31.856Z,28.17
2023-05-06T11:17:59.793Z,28.75
2023-05-06T11:20:27.576Z,29.29
2023-05-06T11:22:56.468Z,29.79
2023-05-06T13:21:48.714Z,28.93
2023-05-06T13:24:16.566Z,28.79
2023-05-06T13:26:44.305Z,28.65
2023-05-06T13:29:12.075Z,28.53
2023-05-06T13:31:40.493Z,28.39
2023-05-06T13:34:08.784Z,28.19
2023-05-06T13:36:36.665Z,27.87
2023-05-06T13:39:04.555Z,27.53
2023-05-06T13:41:32.965Z,27.31
2023-05-06T13:44:00.914Z,26.95
2023-05-06T13:46:29.146Z,26.53
2023-05-06T13:48:57.135Z,26.17
2023-05-06T13:51:27.776Z,25.94
2023-05-06T13:53:55.714Z,25.78
2023-05-06T13:56:23.542Z,25.64
2023-05-06T13:58:53.764Z,25.49
2023-05-06T14:01:21.443Z,25.35
2023-05-06T14:03:50.094Z,25.29
2023-05-06T14:06:18.065Z,25.34
2023-05-06T14:08:45.852Z,25.30
2023-05-06T14:11:14.220Z,25.17
2023-05-06T14:13:42.022Z,25.14
2023-05-06T14:16:09.824Z,25.16
2023-05-06T14:18:37.615Z,25.28
2023-05-06T14:21:05.334Z,25.44
2023-05-06T14:23:34.419Z,25.62
2023-05-06T14:26:02.204Z,25.85
2023-05-06T14:28:29.977Z,26.18
2023-05-06T14:30:58.329Z,26.35
2023-05-06T14:33:26.955Z,26.50
2023-05-06T14:35:55.900Z,26.72
2023-05-06T14:38:23.787Z,26.88
2023-05-06T14:40:51.529Z,27.08
2023-05-06T14:43:19.742Z,27.20
2023-05-06T14:45:48.130Z,27.24
2023-05-06T14:48:16.938Z,27.22
2023-05-06T14:50:44.936Z,27.09
2023-05-06T14:53:12.681Z,26.80
2023-05-06T14:55:41.433Z,26.45
2023-05-06T14:58:09.206Z,26.18
2023-05-06T15:00:37.776Z,25.93
2023-05-06T15:03:05.543Z,25.69
2023-05-06T15:05:33.582Z,25.40
2023-05-06T15:08:02.343Z,25.19
2023-05-06T15:10:30.314Z,24.95
2023-05-06T15:12:59.083Z,24.63
2023-05-06T15:15:26.913Z,24.29
2023-05-06T15:17:54.633Z,23.96
2023-05-06T15:20:22.443Z,23.66
2023-05-06T15:22:50.190Z,23.41
2023-05-06T15:25:33.334Z,23.18
2023-05-06T15:28:02.879Z,23.02
2023-05-06T15:30:30.573Z,22.89
2023-05-06T15:32:58.539Z,22.76
2023-05-06T15:35:27.822Z,22.61
2023-05-06T15:37:55.748Z,22.45
2023-05-06T15:40:25.670Z,22.26
2023-05-06T15:42:53.505Z,22.09
2023-05-06T15:45:21.285Z,21.93
2023-05-06T15:47:49.655Z,21.76
2023-05-06T15:50:32.050Z,21.62
2023-05-06T15:53:01.463Z,21.47
2023-05-06T15:55:29.331Z,21.33
2023-05-06T15:58:00.460Z,21.22
2023-05-06T16:00:28.870Z,21.10
2023-05-06T16:02:57.494Z,20.97
2023-05-06T16:05:25.564Z,20.82
2023-05-06T16:07:53.470Z,20.67
2023-05-06T16:10:22.685Z,20.52
2023-05-06T16:12:50.497Z,20.36
2023-05-06T16:15:18.661Z,20.19
2023-05-06T16:17:46.487Z,19.88
2023-05-06T16:20:14.407Z,19.16
2023-05-06T16:22:42.378Z,18.26
2023-05-06T16:25:10.303Z,17.52
2023-05-06T16:27:37.935Z,16.73
2023-05-06T16:30:05.984Z,16.14
2023-05-06T16:32:34.373Z,15.71
2023-05-06T16:35:03.322Z,15.44
2023-05-06T16:37:31.329Z,15.25
2023-05-06T16:39:59.324Z,15.15
2023-05-06T16:42:27.237Z,15.05
2023-05-06T16:44:55.037Z,14.98
2023-05-06T16:47:23.916Z,14.98
2023-05-06T16:49:52.011Z,14.95
2023-05-06T16:52:19.997Z,14.94
2023-05-06T16:54:47.915Z,14.92
2023-05-06T16:57:15.747Z,14.93
2023-05-06T16:59:43.989Z,14.96
2023-05-06T17:02:12.009Z,15.02
2023-05-06T17:04:40.049Z,15.11
2023-05-06T17:07:07.975Z,15.22
2023-05-06T17:09:35.987Z,15.29
2023-05-06T17:12:04.230Z,15.34
2023-05-06T17:14:32.128Z,15.38
2023-05-06T17:17:02.654Z,15.43
2023-05-06T17:19:30.408Z,15.47
2023-05-06T17:21:58.212Z,15.53
2023-05-06T17:24:27.164Z,15.60
2023-05-06T17:26:55.148Z,15.67
2023-05-06T17:29:23.035Z,15.73
2023-05-06T17:31:51.210Z,15.80
2023-05-06T17:34:19.183Z,15.86
2023-05-06T17:36:47.766Z,15.91
2023-05-06T17:39:17.207Z,15.92
2023-05-06T17:41:45.003Z,15.92
2023-05-06T17:44:12.850Z,15.92
2023-05-06T17:46:40.821Z,15.91
2023-05-06T17:49:09.047Z,15.92
2023-05-06T17:51:36.815Z,15.96
2023-05-06T17:54:04.727Z,15.96
2023-05-06T17:56:32.553Z,15.97
2023-05-06T17:59:02.842Z,15.96
2023-05-06T18:01:32.767Z,15.92
2023-05-06T18:04:00.781Z,15.90
2023-05-06T18:06:29.112Z,15.88
2023-05-06T18:08:57.006Z,15.87
2023-05-06T18:11:24.786Z,15.86
2023-05-06T18:13:52.645Z,15.87
2023-05-06T18:16:20.597Z,15.85
2023-05-06T18:18:48.637Z,15.84
2023-05-06T18:21:16.488Z,15.82
2023-05-06T18:23:44.613Z,15.80
2023-05-06T18:26:13.876Z,15.77
2023-05-06T18:28:43.457Z,15.75
2023-05-06T18:31:11.318Z,15.73
2023-05-06T18:33:39.159Z,15.70
2023-05-06T18:36:06.970Z,15.69
2023-05-06T18:38:35.366Z,15.68
2023-05-06T18:41:03.312Z,15.63
2023-05-06T18:43:31.585Z,15.60
2023-05-06T18:45:59.434Z,15.56
2023-05-06T18:48:27.457Z,15.52
2023-05-06T18:50:55.878Z,15.50
2023-05-06T18:53:23.912Z,15.46
2023-05-06T18:55:51.965Z,15.43
2023-05-06T18:58:19.963Z,15.41
2023-05-06T19:00:47.867Z,15.41
2023-05-06T19:03:16.633Z,15.39
2023-05-06T19:05:45.046Z,15.38
2023-05-06T19:08:14.115Z,15.35
2023-05-06T19:10:41.991Z,15.35
2023-05-06T19:13:09.978Z,15.33
2023-05-06T19:15:38.804Z,15.31
2023-05-06T19:18:07.313Z,15.27
2023-05-06T19:20:35.475Z,15.26
2023-05-06T19:23:05.046Z,15.22
2023-05-06T19:25:33.030Z,15.22
2023-05-06T19:28:02.703Z,15.20
2023-05-06T19:30:30.938Z,15.21
2023-05-06T19:32:58.921Z,15.19
2023-05-06T19:35:26.948Z,15.17
2023-05-06T19:37:55.026Z,15.16
2023-05-06T19:40:23.697Z,15.17
2023-05-06T19:42:51.576Z,15.18
2023-05-06T19:45:19.647Z,15.20
2023-05-06T19:47:47.743Z,15.20
2023-05-06T19:50:16.318Z,15.22
2023-05-06T19:52:44.835Z,15.23
2023-05-06T19:55:13.076Z,15.22
2023-05-06T19:57:41.271Z,15.21
2023-05-06T20:00:10.687Z,15.20
2023-05-06T20:02:38.987Z,15.18
2023-05-06T20:05:07.386Z,15.16
2023-05-06T20:07:35.497Z,15.12
2023-05-06T20:10:03.517Z,15.07
2023-05-06T20:12:31.696Z,15.03
2023-05-06T20:14:59.805Z,15.00
2023-05-06T20:17:28.527Z,14.99
2023-05-06T20:19:58.744Z,14.97
2023-05-06T20:22:26.743Z,14.93
2023-05-06T20:24:54.624Z,14.88
2023-05-06T20:27:22.630Z,14.83
2023-05-06T20:29:52.268Z,14.80
2023-05-06T20:32:20.206Z,14.81
2023-05-06T20:34:48.756Z,14.80
2023-05-06T20:37:16.749Z,14.78
2023-05-06T20:39:45.102Z,14.76
2023-05-06T20:42:13.823Z,14.77
2023-05-06T20:44:41.771Z,14.77
2023-05-06T20:47:12.683Z,14.78
2023-05-06T20:49:41.155Z,14.77
2023-05-06T20:52:14.664Z,14.77
2023-05-06T20:54:43.019Z,14.77
2023-05-06T20:57:10.787Z,14.77
2023-05-06T20:59:38.851Z,14.77
2023-05-06T21:02:06.774Z,14.75
2023-05-06T21:04:35.501Z,14.75
2023-05-06T21:07:03.715Z,14.74
2023-05-06T21:09:31.599Z,14.75
2023-05-06T21:11:59.388Z,14.74
2023-05-06T21:14:27.420Z,14.76
2023-05-06T21:16:56.087Z,14.76
2023-05-06T21:19:24.064Z,14.79
2023-05-06T21:21:51.936Z,14.80
2023-05-06T21:24:19.991Z,14.82
2023-05-06T21:26:47.890Z,14.84
2023-05-06T21:29:15.997Z,14.86
2023-05-06T21:31:43.901Z,14.87
2023-05-06T21:34:11.628Z,14.86
2023-05-06T21:36:39.476Z,14.86
2023-05-06T21:39:08.145Z,14.86
2023-05-06T21:41:36.960Z,14.87
2023-05-06T21:44:04.917Z,14.87
2023-05-06T21:46:32.831Z,14.88
2023-05-06T21:49:00.740Z,14.89
2023-05-06T21:51:28.549Z,14.88
2023-05-06T21:53:56.618Z,14.88
2023-05-06T21:56:24.680Z,14.86
2023-05-06T21:58:52.530Z,14.86
2023-05-06T22:01:20.384Z,14.83
2023-05-06T22:03:48.242Z,14.82
2023-05-06T22:06:16.515Z,14.80
2023-05-06T22:08:44.342Z,14.77
2023-05-06T22:11:12.309Z,14.75
2023-05-06T22:13:40.031Z,14.73
2023-05-06T22:16:08.013Z,14.71
2023-05-06T22:18:36.537Z,14.70
2023-05-06T22:21:04.563Z,14.69
2023-05-06T22:23:32.730Z,14.68
2023-05-06T22:26:00.587Z,14.68
2023-05-06T22:28:28.393Z,14.65
2023-05-06T22:30:56.525Z,14.65
2023-05-06T22:33:24.277Z,14.67
2023-05-06T22:35:51.993Z,14.65
2023-05-06T22:38:19.772Z,14.65
2023-05-06T22:40:47.457Z,14.66
2023-05-06T22:43:15.791Z,14.67
2023-05-06T22:45:45.186Z,14.64
2023-05-06T22:48:12.850Z,14.63
2023-05-06T22:50:40.703Z,14.61
2023-05-06T22:53:14.928Z,14.59
2023-05-06T22:55:43.617Z,14.55
2023-05-06T22:58:11.285Z,14.50
2023-05-06T23:00:38.938Z,14.47
2023-05-06T23:03:06.671Z,14.42
2023-05-06T23:05:34.329Z,14.40
2023-05-06T23:08:02.716Z,14.39
2023-05-06T23:10:30.469Z,14.36
2023-05-06T23:12:58.182Z,14.36
2023-05-06T23:15:25.897Z,14.35
2023-05-06T23:17:53.639Z,14.34
2023-05-06T23:20:21.336Z,14.31
2023-05-06T23:22:49.081Z,14.31
2023-05-06T23:25:17.242Z,14.30
2023-05-06T23:27:45.015Z,14.30
2023-05-06T23:30:12.655Z,14.30
2023-05-06T23:32:40.719Z,14.32
2023-05-06T23:35:08.575Z,14.31
2023-05-06T23:37:36.336Z,14.31
2023-05-06T23:40:04.301Z,14.31
2023-05-06T23:42:31.967Z,14.29
2023-05-06T23:45:00.596Z,14.27
2023-05-06T23:47:28.435Z,14.27
2023-05-06T23:49:56.086Z,14.26
2023-05-06T23:52:24.026Z,14.25
2023-05-06T23:54:51.751Z,14.26
2023-05-06T23:57:19.812Z,14.25
2023-05-06T23:59:47.769Z,14.25
